Plaster Rock, Canada
Current Conditions -  °F | °C
As of 8:54 PM on Saturday 22 Nov 2014 (Local Time) from KCAR Reporting Station
Overcast Overcast  
Wind Chill: 18°   Ceiling: 2900
Heat Index: 26°   Visibility: 10mi
Dew Point: 18°   Wind: 7mph
Humidity: 71%   Direction: 180°S
Pressure: 29.77"   Gusts: NA
Location:  46.9°N, 67.38°W
Report Text: KCAR 230054Z AUTO 18006KT 10SM OVC029 M03/M08 A2977 RMK AO2 SNB04E13 SLP097 P0000 T10331078
Loading
Personal Weather Stations






























Interactive Weather Map New forecast layout! Learn more

10-Day Weather Forecast

Advertisements
Track Severe Weather on mobile